Kalaheo, HI

5:19 PM HST on December 25, 2014 (GMT -1000)
Koloa Landing - Whaler's Cove | Change Station
CLOSE
Current Station
Personal Weather Station
Location: Koloa, HI
Elevation: 25 ft
Nearby Weather Stations

Elev 25 ft 21.88 °N, 159.47 °W | Updated 9 minutes ago

Partly Cloudy
Partly Cloudy
74.8 °F
Feels Like 77 °F
N
0.0
Wind Variable Wind from SE
Gusts 0.0 mph

Today
High -- | Low -- °F
--% Chance of Precip.
Yesterday
High -- | Low -- °F
Precip. -- in
7:14 AM 6:02 PM
Waxing Crescent, 21% visible
Pressure 29.75 in
Visibility 10.0 miles
Clouds Few 3200 ft
Heat Index 77 °F
Dew Point 64 °F
Humidity 68%
Rainfall 0.00 in
Snow Depth Not available.
UV 1 out of 12
Pollen Not available.
Air Quality Not available.
Flu Activity Not available.
METAR PHLI 260253Z 08004KT 10SM FEW032 24/16 A2976 RMK AO2 SLP075 T02440161 53005 $

More Conditions Fewer Conditions

Pressure 29.75 in
Visibility 10.0 miles
Clouds Few 3200 ft
Heat Index 77 °F
Dew Point 64 °F
Humidity 68%
Rainfall 0.00 in
Snow Depth Not available.
UV 1 out of 12
Pollen Not available.
Air Quality Not available.
Flu Activity Not available.
METAR PHLI 260253Z 08004KT 10SM FEW032 24/16 A2976 RMK AO2 SLP075 T02440161 53005 $

More Conditions Fewer Conditions

10-Day Weather Forecast

Almanac

Astronomy

Dec. 25, 2014 Rise Set
Actual Time
Civil Twilight
Nautical Twilight
Astronomical Twilight
Moon
Length of Visible Light
Length of Day
Tomorrow will be .
, % of the Moon is Illuminated

Today's Extremes

State Highs State Lows

Community

WunderPhotos

Upload Photos

1,780,529 photos uploaded!

WunderBlogs® & News

Nearby

Air Quality

  Air Quality AQ Index Pollutant
Not available.

Snow Depth

Station Depth Elevation

Earthquake Activity

City Distance Mag. Time & Date
Minimum magnitude displayed is 2.5.

Coastal Water Temperatures

Place Temperature

Nearby Weather Stations